Burnt Corn, Alabama
Current Conditions -  °F | °C
As of 8:53 PM on Sunday 23 Nov 2014 (Local Time) from KGZH Reporting Station
Overcast Overcast  
Wind Chill: 66°   Ceiling: 700
Heat Index: 66°   Visibility: 9mi
Dew Point: 63°   Wind: 10mph
Humidity: 90%   Direction: 200°SSW
Pressure: 29.75"   Gusts: NA
Location:  31.55°N, 87.16°W
Report Text: KGZH 240253Z AUTO 20009KT 9SM BKN007 OVC011 19/17 A2975 RMK AO2 SLP072 T01890172 53013
Loading
Personal Weather Stations






























Interactive Weather Map New forecast layout! Learn more

10-Day Weather Forecast

Advertisements
Track Severe Weather on mobile